Time;durP1;ratioP1;P1;durP2;ratioP2;P2;SDS_P1;SDS_P2;PMS_P1;PMS_P2;Temp;Humidity;BMP_temperature;BMP_pressure;BME280_temperature;BME280_humidity;BME280_pressure;Samples;Min_cycle;Max_cycle;Signal;HPM_P1;HPM_P2
2021/10/01 00:02:16;;;;;;;7.73;3.60;;;;;;;12.71;61.21;101645.13;5066566;28;20185;-67
2021/10/01 00:04:41;;;;;;;4.13;3.33;;;;;;;13.20;60.28;101630.97;5061543;28;20439;-68
2021/10/01 00:07:06;;;;;;;6.60;4.60;;;;;;;13.03;60.37;101636.88;5041363;28;20393;-68
2021/10/01 00:09:32;;;;;;;4.90;3.50;;;;;;;12.99;60.63;101637.69;5059125;28;20493;-67
2021/10/01 00:11:57;;;;;;;4.83;3.53;;;;;;;12.94;61.20;101621.91;5058268;28;20201;-68
2021/10/01 00:14:24;;;;;;;4.77;3.20;;;;;;;13.09;60.46;101643.94;5058473;28;20170;-68
2021/10/01 00:16:51;;;;;;;4.30;3.37;;;;;;;12.82;61.26;101626.09;5059090;28;20169;-68
2021/10/01 00:19:17;;;;;;;4.60;3.50;;;;;;;12.49;61.99;101628.22;5058521;28;20412;-69
2021/10/01 00:21:42;;;;;;;5.27;3.63;;;;;;;12.78;60.88;101614.69;5058311;28;20412;-67
2021/10/01 00:24:08;;;;;;;4.87;3.50;;;;;;;12.77;60.80;101611.22;5058870;28;20436;-68
2021/10/01 00:26:36;;;;;;;4.37;3.23;;;;;;;12.83;60.95;101606.91;5058309;28;20256;-69
2021/10/01 00:29:01;;;;;;;6.77;3.10;;;;;;;12.87;61.50;101603.50;5058365;28;20176;-67
2021/10/01 00:31:27;;;;;;;4.53;3.50;;;;;;;12.90;61.71;101603.53;5058547;28;20452;-69
2021/10/01 00:33:52;;;;;;;6.17;3.43;;;;;;;12.81;62.25;101604.25;5058519;28;20441;-69
2021/10/01 00:36:17;;;;;;;4.67;3.40;;;;;;;12.80;61.69;101603.41;5058320;28;20162;-67
2021/10/01 00:38:42;;;;;;;4.87;3.40;;;;;;;12.83;61.95;101599.03;5058647;28;20196;-68
2021/10/01 00:41:08;;;;;;;3.83;3.40;;;;;;;12.73;62.08;101593.72;5057972;28;20180;-68
2021/10/01 00:43:33;;;;;;;4.03;3.30;;;;;;;12.70;62.03;101588.41;5058055;28;20169;-68
2021/10/01 00:45:58;;;;;;;4.77;3.53;;;;;;;12.76;62.50;101580.66;5058852;28;20170;-68
2021/10/01 00:48:24;;;;;;;6.20;3.60;;;;;;;12.67;62.13;101591.00;5040539;28;20169;-68
2021/10/01 00:50:49;;;;;;;4.67;3.53;;;;;;;12.77;62.10;101581.53;5057658;28;20217;-68
2021/10/01 00:53:14;;;;;;;4.93;3.73;;;;;;;12.91;61.92;101582.63;5058581;28;20252;-68
2021/10/01 00:55:40;;;;;;;7.10;3.30;;;;;;;13.05;61.76;101585.41;5058005;28;20176;-67
2021/10/01 00:58:05;;;;;;;3.80;3.33;;;;;;;12.88;61.33;101579.97;5058200;28;20199;-68
2021/10/01 01:00:31;;;;;;;4.33;3.50;;;;;;;12.81;61.40;101580.72;5058394;28;20402;-67
2021/10/01 01:03:02;;;;;;;6.37;3.37;;;;;;;13.20;60.44;101573.38;5057940;28;20181;-68
2021/10/01 01:05:47;;;;;;;6.10;3.40;;;;;;;13.14;60.83;101567.19;5057959;28;20539;-67
2021/10/01 01:08:13;;;;;;;9.67;3.60;;;;;;;12.86;61.24;101563.34;5040576;28;20701;-67
2021/10/01 01:10:45;;;;;;;6.10;3.43;;;;;;;13.04;60.60;101551.34;5057890;28;20378;-68
2021/10/01 01:13:32;;;;;;;5.60;3.20;;;;;;;13.05;60.00;101555.75;5040709;28;20631;-68
2021/10/01 01:16:02;;;;;;;4.33;3.23;;;;;;;13.29;59.85;101561.25;5057933;28;20544;-67
2021/10/01 01:18:49;;;;;;;9.13;3.80;;;;;;;13.01;60.21;101561.81;5057943;28;20420;-68
2021/10/01 01:21:23;;;;;;;4.47;2.80;;;;;;;12.97;60.60;101553.91;5057716;28;20420;-67
2021/10/01 01:24:00;;;;;;;9.80;3.33;;;;;;;13.39;59.37;101548.31;5040194;28;20516;-67
2021/10/01 01:27:17;;;;;;;4.17;3.10;;;;;;;13.10;59.88;101554.94;5057928;28;20669;-67
2021/10/01 01:29:51;;;;;;;3.50;2.90;;;;;;;13.31;59.11;101551.69;4996901;28;20492;-67
2021/10/01 01:32:21;;;;;;;4.50;3.37;;;;;;;13.37;59.03;101547.41;4997136;28;20536;-68
2021/10/01 01:35:10;;;;;;;3.90;3.00;;;;;;;12.84;59.97;101551.09;5013508;28;20443;-68
2021/10/01 01:37:45;;;;;;;4.50;3.27;;;;;;;12.97;59.83;101551.31;5057869;28;20443;-68
2021/10/01 01:40:13;;;;;;;5.57;3.60;;;;;;;13.07;59.20;101554.00;5057646;28;20386;-68
2021/10/01 01:42:41;;;;;;;3.50;2.90;;;;;;;13.02;59.50;101548.72;5040335;28;20493;-68
2021/10/01 01:45:07;;;;;;;3.50;2.70;;;;;;;13.22;59.19;101550.69;5040192;28;20511;-69
2021/10/01 01:47:33;;;;;;;3.53;3.20;;;;;;;12.97;59.63;101553.91;5040175;28;20390;-68
2021/10/01 01:49:58;;;;;;;5.63;3.10;;;;;;;13.24;58.69;101543.75;5040685;28;20379;-68
2021/10/01 01:52:24;;;;;;;4.93;3.20;;;;;;;13.04;59.39;101544.38;5039988;28;20445;-68
2021/10/01 01:54:50;;;;;;;3.47;3.07;;;;;;;13.00;59.28;101536.47;5040280;28;20174;-67
2021/10/01 01:57:17;;;;;;;4.40;3.50;;;;;;;13.23;58.64;101532.41;5058030;28;20165;-68
2021/10/01 01:59:42;;;;;;;3.50;2.77;;;;;;;13.26;58.97;101523.69;5040174;28;20284;-68
2021/10/01 02:02:08;;;;;;;4.77;3.50;;;;;;;13.16;59.13;101527.06;5042717;28;20791;-68
2021/10/01 02:04:34;;;;;;;6.20;3.23;;;;;;;13.17;58.90;101524.47;5063300;28;20265;-69
2021/10/01 02:07:00;;;;;;;5.13;3.23;;;;;;;13.35;58.75;101512.44;5046298;28;20546;-67
2021/10/01 02:09:27;;;;;;;5.47;3.43;;;;;;;12.94;59.98;101511.97;5059415;28;20428;-67
2021/10/01 02:11:52;;;;;;;4.97;3.17;;;;;;;13.06;59.21;101516.50;5044608;28;20444;-68
2021/10/01 02:14:21;;;;;;;7.03;3.13;;;;;;;12.92;60.12;101511.09;5060587;28;20406;-68
2021/10/01 02:16:48;;;;;;;6.80;3.40;;;;;;;13.18;59.13;101515.75;5057145;28;20177;-67
2021/10/01 02:19:14;;;;;;;3.83;2.90;;;;;;;13.08;59.36;101509.56;5044289;28;20466;-67
2021/10/01 02:21:41;;;;;;;4.57;3.40;;;;;;;13.27;59.04;101502.78;5042890;28;20410;-68
2021/10/01 02:24:06;;;;;;;5.03;3.30;;;;;;;13.01;59.72;101515.56;5043396;28;20387;-68
2021/10/01 02:26:47;;;;;;;4.80;3.30;;;;;;;13.19;59.42;101501.81;5061278;28;20782;-68
2021/10/01 02:29:19;;;;;;;5.20;3.30;;;;;;;13.23;59.56;101510.56;5043348;28;20452;-68
2021/10/01 02:32:26;;;;;;;6.97;3.30;;;;;;;13.13;59.82;101497.38;5043137;28;20442;-68
2021/10/01 02:34:51;;;;;;;3.87;2.93;;;;;;;13.11;59.26;101496.50;5054805;28;20742;-68
2021/10/01 02:37:17;;;;;;;3.73;3.30;;;;;;;13.21;59.48;101483.50;5043267;28;20420;-68
2021/10/01 02:39:46;;;;;;;3.60;3.10;;;;;;;13.17;59.46;101481.72;5059916;28;20174;-68
2021/10/01 02:42:13;;;;;;;3.80;3.40;;;;;;;13.22;59.40;101482.63;5060274;28;20178;-68
2021/10/01 02:44:40;;;;;;;4.60;3.40;;;;;;;13.11;59.82;101488.63;5059426;28;20428;-70
2021/10/01 02:47:06;;;;;;;4.87;3.20;;;;;;;13.20;59.17;101472.13;5057252;28;20410;-68
2021/10/01 02:49:31;;;;;;;3.80;3.37;;;;;;;13.16;58.95;101480.81;5058542;28;20810;-68
2021/10/01 02:52:06;;;;;;;7.83;3.60;;;;;;;13.19;59.05;101467.78;5059206;28;20910;-68
2021/10/01 02:54:41;;;;;;;5.20;3.40;;;;;;;13.28;58.84;101469.59;5042412;28;20212;-68
2021/10/01 02:57:15;;;;;;;6.40;3.20;;;;;;;13.21;59.22;101467.78;5041835;28;20432;-68
2021/10/01 02:59:42;;;;;;;5.57;2.90;;;;;;;12.99;59.85;101464.94;5042027;28;20414;-68
2021/10/01 03:02:08;;;;;;;4.37;3.30;;;;;;;13.17;58.96;101464.25;5042149;28;20482;-68
2021/10/01 03:04:35;;;;;;;4.30;3.50;;;;;;;13.02;59.51;101457.13;5042664;28;20391;-68
2021/10/01 03:07:03;;;;;;;4.67;2.90;;;;;;;13.11;59.02;101466.78;5042604;28;20495;-68
2021/10/01 03:09:29;;;;;;;3.40;2.80;;;;;;;13.13;58.96;101452.84;5060362;28;20398;-68
2021/10/01 03:11:56;;;;;;;5.07;2.90;;;;;;;13.06;59.12;101447.56;5059575;28;20467;-68
2021/10/01 03:14:21;;;;;;;3.47;2.60;;;;;;;13.27;59.00;101444.28;5042400;28;20743;-69
2021/10/01 03:16:48;;;;;;;4.67;2.93;;;;;;;12.94;59.36;101441.31;5042873;28;20408;-68
2021/10/01 03:19:14;;;;;;;9.13;3.30;;;;;;;12.97;60.05;101449.22;5042781;28;20645;-68
2021/10/01 03:21:41;;;;;;;5.33;2.93;;;;;;;13.02;59.54;101446.66;5042163;28;20424;-68
2021/10/01 03:24:06;;;;;;;4.50;3.10;;;;;;;12.90;59.77;101443.91;5042586;28;20180;-69
2021/10/01 03:26:32;;;;;;;5.73;3.17;;;;;;;12.80;60.41;101441.16;5059450;28;20815;-68
2021/10/01 03:28:57;;;;;;;3.80;3.50;;;;;;;12.98;60.14;101439.63;5042175;28;20528;-68
2021/10/01 03:31:25;;;;;;;3.20;3.00;;;;;;;12.95;59.64;101437.84;5042248;28;20315;-68
2021/10/01 03:33:50;;;;;;;3.63;3.17;;;;;;;12.79;60.03;101434.16;5042119;28;20215;-68
2021/10/01 03:36:16;;;;;;;4.37;3.30;;;;;;;12.96;59.48;101438.72;5059351;28;20511;-69
2021/10/01 03:38:42;;;;;;;7.60;3.27;;;;;;;12.70;60.40;101444.53;5059896;28;20531;-68
2021/10/01 03:41:07;;;;;;;3.53;3.00;;;;;;;12.68;60.23;101433.19;5042581;28;20417;-68
2021/10/01 03:43:32;;;;;;;5.83;3.40;;;;;;;12.69;60.42;101421.88;5059272;28;20181;-68
2021/10/01 03:45:58;;;;;;;5.60;2.87;;;;;;;12.51;60.49;101432.09;5059611;28;20170;-68
2021/10/01 03:48:24;;;;;;;4.93;2.93;;;;;;;12.64;60.23;101439.22;5059032;28;20184;-68
2021/10/01 03:50:49;;;;;;;3.30;3.03;;;;;;;12.57;59.75;101442.59;5058703;28;20240;-68
2021/10/01 03:53:14;;;;;;;4.40;2.80;;;;;;;12.63;60.32;101437.47;5059357;28;20501;-68
2021/10/01 03:55:40;;;;;;;4.00;3.10;;;;;;;12.79;60.01;101434.16;5058977;28;20554;-68
2021/10/01 03:58:05;;;;;;;7.57;5.77;;;;;;;12.90;59.19;101438.66;5059006;28;20188;-70
2021/10/01 04:00:30;;;;;;;6.40;3.00;;;;;;;12.64;59.66;101437.47;5059248;28;20185;-69
2021/10/01 04:02:56;;;;;;;4.70;3.10;;;;;;;12.52;60.42;101437.34;5059124;28;20178;-69
2021/10/01 04:05:21;;;;;;;6.50;3.40;;;;;;;12.56;60.14;101425.19;5058765;28;20173;-68
2021/10/01 04:07:47;;;;;;;6.30;3.57;;;;;;;12.90;59.57;101425.56;5059287;28;20438;-67
2021/10/01 04:10:13;;;;;;;3.80;3.10;;;;;;;12.85;59.62;101422.88;5058433;28;20233;-69
2021/10/01 04:12:38;;;;;;;4.93;2.80;;;;;;;12.63;60.21;101421.78;5058453;28;20212;-68
2021/10/01 04:15:05;;;;;;;3.33;2.90;;;;;;;12.21;61.48;101423.84;5058923;28;20567;-68
2021/10/01 04:17:30;;;;;;;5.53;2.97;;;;;;;12.47;60.58;101415.47;5058421;28;20235;-68
2021/10/01 04:19:57;;;;;;;4.10;3.00;;;;;;;12.63;60.19;101419.16;5058354;28;20420;-68
2021/10/01 04:22:22;;;;;;;4.03;3.00;;;;;;;12.11;61.38;101422.84;5058872;28;20247;-68
2021/10/01 04:24:48;;;;;;;3.80;2.93;;;;;;;12.75;59.66;101415.81;5058116;28;20399;-69
2021/10/01 04:27:13;;;;;;;6.47;3.37;;;;;;;12.37;60.30;101411.88;5058411;28;20174;-68
2021/10/01 04:29:38;;;;;;;3.60;3.00;;;;;;;12.27;60.72;101409.97;5041498;28;20554;-69
2021/10/01 04:32:05;;;;;;;4.27;2.90;;;;;;;12.35;60.63;101410.94;5058195;28;20209;-69
2021/10/01 04:34:33;;;;;;;3.40;3.10;;;;;;;12.60;59.94;101412.16;5058256;28;20169;-69
2021/10/01 04:36:59;;;;;;;7.20;3.17;;;;;;;12.48;60.33;101413.75;5058534;28;20413;-68
2021/10/01 04:39:24;;;;;;;3.10;2.80;;;;;;;12.52;60.08;101407.69;5058179;28;20416;-68
2021/10/01 04:41:50;;;;;;;9.90;3.47;;;;;;;12.63;59.69;101419.16;5058011;28;20414;-68
2021/10/01 04:44:15;;;;;;;4.53;2.80;;;;;;;12.72;59.89;101411.41;5058773;28;20460;-68
2021/10/01 04:46:40;;;;;;;7.70;3.30;;;;;;;12.71;59.34;101417.50;5058128;28;20180;-67
2021/10/01 04:49:06;;;;;;;4.80;3.30;;;;;;;12.45;59.86;101410.22;5058119;28;20173;-68
2021/10/01 04:51:31;;;;;;;4.90;3.00;;;;;;;12.66;59.89;101416.56;5058266;28;20222;-69
2021/10/01 04:53:56;;;;;;;4.70;3.10;;;;;;;12.68;59.74;101407.00;5059227;28;20187;-70
2021/10/01 04:56:22;;;;;;;7.20;3.13;;;;;;;12.67;59.70;101410.50;5058851;28;20260;-68
2021/10/01 04:58:47;;;;;;;4.17;3.00;;;;;;;12.64;59.85;101415.69;5040884;28;20248;-69
2021/10/01 05:01:12;;;;;;;4.10;3.07;;;;;;;12.59;59.83;101418.22;5057802;28;20526;-68
2021/10/01 05:03:37;;;;;;;3.30;3.00;;;;;;;12.42;60.14;101425.88;5058470;28;20204;-68
2021/10/01 05:06:03;;;;;;;4.67;3.60;;;;;;;12.45;60.11;101423.31;5058048;28;20169;-68
2021/10/01 05:08:28;;;;;;;4.20;3.17;;;;;;;12.53;59.43;101430.34;5057837;28;20425;-68
2021/10/01 05:10:53;;;;;;;6.53;3.23;;;;;;;12.69;59.38;101427.09;5058454;28;20397;-69
2021/10/01 05:13:19;;;;;;;4.83;3.27;;;;;;;12.54;59.98;101422.56;5058313;28;20174;-68
2021/10/01 05:15:44;;;;;;;4.03;3.50;;;;;;;12.76;59.10;101426.28;5057827;28;20180;-68
2021/10/01 05:18:13;;;;;;;4.50;3.20;;;;;;;12.64;59.81;101420.91;5058133;28;20463;-67
2021/10/01 05:20:38;;;;;;;7.53;3.50;;;;;;;12.67;59.02;101438.41;5058107;28;20479;-68
2021/10/01 05:23:03;;;;;;;6.07;3.10;;;;;;;12.68;59.24;101433.19;5058190;28;20424;-68
2021/10/01 05:25:29;;;;;;;4.30;3.03;;;;;;;12.60;59.25;101430.47;5058646;28;20169;-69
2021/10/01 05:27:54;;;;;;;4.47;3.07;;;;;;;12.83;59.40;101419.41;5058124;28;20185;-68
2021/10/01 05:30:20;;;;;;;3.63;3.07;;;;;;;12.60;59.69;101421.75;5057753;28;20177;-68
2021/10/01 05:32:45;;;;;;;4.77;3.23;;;;;;;12.86;59.04;101419.41;5058399;28;20198;-68
2021/10/01 05:35:11;;;;;;;7.33;3.20;;;;;;;12.72;59.46;101421.88;5058204;28;20178;-68
2021/10/01 05:37:36;;;;;;;4.03;3.10;;;;;;;12.23;60.84;101411.69;5061425;28;20206;-69
2021/10/01 05:40:03;;;;;;;7.73;3.20;;;;;;;12.55;59.45;101418.19;5062031;28;20170;-69
2021/10/01 05:42:28;;;;;;;5.03;3.10;;;;;;;12.68;59.10;101421.81;5061444;28;20177;-68
2021/10/01 05:44:54;;;;;;;5.03;3.00;;;;;;;12.29;59.81;101413.50;5044084;28;20514;-69
2021/10/01 05:47:19;;;;;;;6.70;3.30;;;;;;;12.67;59.27;101425.31;5061672;28;20184;-68
2021/10/01 05:49:45;;;;;;;3.90;2.80;;;;;;;12.55;59.28;101416.44;5061164;28;20260;-69
2021/10/01 05:52:17;;;;;;;5.70;3.30;;;;;;;12.27;60.23;101418.72;5061090;28;20253;-68
2021/10/01 05:54:43;;;;;;;4.13;2.90;;;;;;;12.72;58.92;101423.59;5045120;28;20252;-69
2021/10/01 05:57:12;;;;;;;5.33;3.10;;;;;;;12.49;59.36;101424.22;5061110;28;20469;-69
2021/10/01 05:59:38;;;;;;;3.40;3.10;;;;;;;12.24;60.25;101415.16;5060882;28;20255;-69
2021/10/01 06:02:03;;;;;;;4.40;3.67;;;;;;;12.71;59.17;101427.97;5061118;28;20399;-70
2021/10/01 06:04:30;;;;;;;5.33;3.33;;;;;;;12.68;59.29;101420.09;5043611;28;20812;-68
2021/10/01 06:06:55;;;;;;;4.00;2.93;;;;;;;12.84;58.70;101415.03;5060859;28;20417;-69
2021/10/01 06:09:22;;;;;;;3.50;3.20;;;;;;;12.86;58.56;101416.81;5061451;28;20510;-68
2021/10/01 06:11:47;;;;;;;3.47;2.93;;;;;;;12.67;59.07;101422.69;5060557;28;20205;-68
2021/10/01 06:14:18;;;;;;;5.97;3.23;;;;;;;12.90;58.08;101417.72;5060823;28;20426;-69
2021/10/01 06:16:44;;;;;;;3.87;3.23;;;;;;;12.53;59.62;101425.13;5061040;28;20231;-69
2021/10/01 06:19:09;;;;;;;8.47;4.50;;;;;;;12.67;59.72;101414.84;5063158;28;20379;-68
2021/10/01 06:21:34;;;;;;;5.23;3.23;;;;;;;12.49;59.81;101410.25;5065601;28;20184;-69
2021/10/01 06:23:59;;;;;;;3.50;3.20;;;;;;;12.84;59.16;101418.53;5068419;28;20169;-69
2021/10/01 06:26:25;;;;;;;4.97;3.27;;;;;;;12.62;59.83;101420.91;5068961;28;20242;-70
2021/10/01 06:28:50;;;;;;;8.33;3.50;;;;;;;13.02;58.96;101420.47;5067708;28;20446;-68
2021/10/01 06:31:15;;;;;;;4.73;3.37;;;;;;;12.79;59.31;101412.38;5066384;28;20173;-69
2021/10/01 06:33:42;;;;;;;3.70;3.13;;;;;;;12.77;59.06;101419.31;5065501;28;20173;-69
2021/10/01 06:36:07;;;;;;;4.80;3.10;;;;;;;12.92;58.51;101419.50;5067285;28;20172;-68
2021/10/01 06:38:32;;;;;;;4.60;3.30;;;;;;;12.82;58.73;101406.31;5048846;28;20428;-68
2021/10/01 06:40:59;;;;;;;6.30;3.33;;;;;;;12.94;58.92;101416.91;5067000;28;20603;-68
2021/10/01 06:43:25;;;;;;;4.07;3.47;;;;;;;13.23;58.05;101416.31;5067104;28;20340;-68
2021/10/01 06:45:53;;;;;;;5.53;2.97;;;;;;;12.97;58.67;101417.81;5044890;28;20414;-69
2021/10/01 06:48:29;;;;;;;7.50;3.50;;;;;;;12.97;58.68;101416.91;5061031;28;20387;-68
2021/10/01 06:51:24;;;;;;;9.97;3.27;;;;;;;12.96;58.88;101416.06;5044943;28;20524;-68
2021/10/01 07:29:27;;;;;;;5.60;3.17;;;;;;;13.96;55.94;101400.34;5059870;28;20444;-68
2021/10/01 08:18:22;;;;;;;4.30;2.83;;;;;;;14.07;55.91;101405.66;5059297;28;20188;-69
2021/10/01 08:19:12;;;;;;;6.90;3.40;;;;;;;13.95;55.92;101395.94;5059340;28;20494;-68
2021/10/01 08:21:38;;;;;;;4.20;2.80;;;;;;;14.45;55.35;101397.09;5059699;28;20473;-68
2021/10/01 08:24:04;;;;;;;9.10;3.00;;;;;;;14.09;55.51;101389.91;5058483;28;20387;-68
2021/10/01 08:26:30;;;;;;;4.27;3.07;;;;;;;14.55;54.55;101397.13;5058566;28;20448;-68
2021/10/01 08:28:55;;;;;;;4.13;2.80;;;;;;;14.13;55.78;101397.78;5058271;28;20539;-68
2021/10/01 08:31:21;;;;;;;3.33;2.60;;;;;;;14.62;54.26;101388.41;5058766;28;22390;-68
2021/10/01 08:33:46;;;;;;;3.90;2.93;;;;;;;14.98;53.96;101387.66;5040988;28;20204;-68
2021/10/01 08:36:12;;;;;;;5.00;3.10;;;;;;;15.21;52.87;101392.06;5058120;28;20390;-68
2021/10/01 08:38:38;;;;;;;8.87;3.20;;;;;;;16.58;50.00;101385.66;5058462;28;20536;-68
2021/10/01 08:41:04;;;;;;;5.17;2.90;;;;;;;17.62;46.35;101375.31;5057943;28;20177;-69
2021/10/01 08:43:31;;;;;;;4.57;2.93;;;;;;;16.25;49.23;101381.41;5058046;28;20176;-69
2021/10/01 08:45:56;;;;;;;7.27;3.03;;;;;;;16.41;49.76;101375.25;5058609;28;20165;-69
2021/10/01 08:48:22;;;;;;;4.27;2.77;;;;;;;16.27;50.27;101382.31;5040684;28;20794;-69
2021/10/01 08:50:48;;;;;;;4.73;2.87;;;;;;;17.68;46.72;101359.44;5040455;28;20259;-68
2021/10/01 08:53:14;;;;;;;3.80;2.87;;;;;;;18.52;44.74;101355.84;5058487;28;20204;-69
2021/10/01 08:55:46;;;;;;;4.50;2.83;;;;;;;18.27;44.79;101358.81;5040740;28;20173;-69
2021/10/01 08:58:11;;;;;;;4.30;3.20;;;;;;;19.16;43.36;101348.75;5058007;28;20415;-69
2021/10/01 09:00:37;;;;;;;3.63;3.10;;;;;;;19.14;42.87;101349.69;5040976;28;20432;-69
2021/10/01 09:03:02;;;;;;;4.10;3.10;;;;;;;19.46;42.26;101340.34;5040623;28;20284;-69
2021/10/01 09:05:27;;;;;;;3.33;2.73;;;;;;;19.80;41.73;101339.72;5057775;28;20174;-69
2021/10/01 09:07:52;;;;;;;4.60;2.97;;;;;;;20.11;40.56;101350.59;5058331;28;20177;-70
2021/10/01 09:10:18;;;;;;;9.40;3.40;;;;;;;19.47;42.83;101342.94;5059431;28;20196;-69
2021/10/01 09:12:53;;;;;;;4.93;3.03;;;;;;;19.67;41.58;101329.38;5044767;28;20215;-68
2021/10/01 09:15:18;;;;;;;4.93;2.80;;;;;;;19.76;40.87;101341.53;5044582;28;20172;-68
2021/10/01 09:17:48;;;;;;;3.17;2.87;;;;;;;19.65;41.51;101340.88;5044660;28;20507;-69
2021/10/01 09:20:15;;;;;;;4.60;2.60;;;;;;;20.14;40.77;101323.19;5062165;28;20170;-70
2021/10/01 09:22:40;;;;;;;6.97;3.03;;;;;;;21.02;38.48;101326.53;5061775;28;20416;-70
2021/10/01 09:25:13;;;;;;;3.93;3.10;;;;;;;21.12;39.01;101325.41;5061961;28;20712;-69
2021/10/01 09:27:41;;;;;;;3.60;3.13;;;;;;;19.48;41.64;101326.19;5044222;28;20183;-69
2021/10/01 09:30:08;;;;;;;6.87;3.13;;;;;;;20.50;39.78;101326.81;5061432;28;20443;-71
2021/10/01 09:32:33;;;;;;;5.93;3.00;;;;;;;21.05;38.96;101317.63;5062327;28;20509;-69
2021/10/01 09:35:09;;;;;;;3.73;3.20;;;;;;;21.44;37.80;101313.06;5061645;28;20423;-69
2021/10/01 09:37:34;;;;;;;4.17;3.20;;;;;;;20.83;39.17;101312.84;5061506;28;20206;-69
2021/10/01 09:40:02;;;;;;;3.03;2.80;;;;;;;21.18;37.49;101306.66;5044025;28;20432;-70
2021/10/01 09:42:30;;;;;;;4.03;3.23;;;;;;;21.72;37.50;101298.19;5044539;28;20428;-69
2021/10/01 09:44:57;;;;;;;5.50;2.90;;;;;;;20.92;39.06;101307.34;5044552;28;20538;-69
2021/10/01 09:47:28;;;;;;;7.00;3.20;;;;;;;21.43;37.58;101298.06;5061595;28;20416;-69
2021/10/01 09:50:14;;;;;;;8.30;5.90;;;;;;;21.89;37.31;101295.09;5061373;28;20428;-69
2021/10/01 09:52:42;;;;;;;8.23;3.40;;;;;;;22.00;36.55;101292.97;5060249;28;20720;-68
2021/10/01 09:55:08;;;;;;;5.30;3.33;;;;;;;22.54;35.59;101284.28;5061393;28;20420;-69
2021/10/01 09:57:38;;;;;;;5.70;4.30;;;;;;;21.97;36.73;101293.06;5043734;28;20455;-68
2021/10/01 10:00:07;;;;;;;4.97;3.30;;;;;;;22.48;36.33;101287.13;5060826;28;20268;-69
2021/10/01 10:02:37;;;;;;;5.93;3.10;;;;;;;21.99;36.35;101286.81;5061522;28;20412;-69
2021/10/01 10:05:02;;;;;;;4.10;3.13;;;;;;;22.48;36.49;101284.47;5061100;28;20469;-69
2021/10/01 10:07:28;;;;;;;6.97;3.50;;;;;;;22.56;36.17;101276.25;5061189;28;20412;-69
2021/10/01 10:09:56;;;;;;;5.23;2.90;;;;;;;20.43;39.62;101290.78;5061332;28;20176;-69
2021/10/01 10:12:34;;;;;;;4.03;2.87;;;;;;;20.17;41.17;101280.75;5060969;28;20455;-69
2021/10/01 10:15:00;;;;;;;6.63;3.10;;;;;;;20.67;40.01;101277.88;5062085;28;20404;-69
2021/10/01 10:17:27;;;;;;;4.73;2.97;;;;;;;20.52;40.02;101269.34;5044393;28;20408;-69
2021/10/01 10:19:55;;;;;;;6.20;3.20;;;;;;;21.21;37.97;101276.53;5061000;28;20427;-69
2021/10/01 10:22:21;;;;;;;4.93;3.10;;;;;;;20.85;39.30;101271.25;5060755;28;20396;-69
2021/10/01 10:24:47;;;;;;;5.70;2.90;;;;;;;21.71;37.12;101260.19;5060721;28;20412;-70
2021/10/01 10:27:13;;;;;;;6.13;2.93;;;;;;;22.21;36.87;101263.13;5062931;28;20461;-69
2021/10/01 10:29:39;;;;;;;6.07;2.90;;;;;;;21.49;37.89;101262.56;5061710;28;20458;-69
2021/10/01 10:32:10;;;;;;;7.30;3.20;;;;;;;21.27;38.63;101255.19;5060350;28;20209;-70
2021/10/01 10:34:39;;;;;;;4.10;2.93;;;;;;;21.36;38.43;101269.97;5060441;28;20424;-70
2021/10/01 10:37:06;;;;;;;7.17;3.40;;;;;;;21.44;38.50;101244.09;5042950;28;20428;-70
2021/10/01 10:39:34;;;;;;;4.53;2.90;;;;;;;20.76;39.36;101255.63;5060670;28;20813;-69
2021/10/01 10:42:02;;;;;;;5.60;2.90;;;;;;;21.00;39.30;101254.13;5060798;28;20408;-69
2021/10/01 10:44:56;;;;;;;5.73;3.30;;;;;;;19.62;41.98;101264.22;5060409;28;20717;-69
2021/10/01 10:47:45;;;;;;;6.37;3.20;;;;;;;19.99;40.95;101258.22;5061116;28;20452;-69
2021/10/01 10:50:25;;;;;;;5.70;3.07;;;;;;;20.28;41.01;101254.03;5059959;28;20697;-69
2021/10/01 10:53:06;;;;;;;6.60;3.40;;;;;;;20.74;39.72;101245.03;5059831;28;20494;-69
2021/10/01 10:55:52;;;;;;;9.07;3.00;;;;;;;20.42;40.73;101249.31;5060109;28;20445;-70
2021/10/01 10:58:26;;;;;;;4.63;3.00;;;;;;;19.65;41.61;101253.59;5060113;28;20466;-70
2021/10/01 11:01:01;;;;;;;5.73;3.70;;;;;;;19.62;41.94;101258.91;5059911;28;20424;-69
2021/10/01 11:03:35;;;;;;;5.13;3.67;;;;;;;19.65;42.34;101250.94;5060113;28;20864;-68
2021/10/01 11:06:18;;;;;;;4.67;3.23;;;;;;;19.13;42.61;101260.72;5059801;28;20408;-68
2021/10/01 11:09:07;;;;;;;7.70;3.70;;;;;;;19.28;42.94;101247.22;5059934;28;20420;-68
2021/10/01 11:11:32;;;;;;;6.03;2.93;;;;;;;19.74;42.36;101234.88;5058909;28;20452;-69
2021/10/01 11:14:18;;;;;;;5.33;3.10;;;;;;;19.68;42.94;101238.50;5059754;28;20427;-69
2021/10/01 11:16:53;;;;;;;4.20;3.23;;;;;;;19.28;43.34;101238.41;5059141;28;20223;-70
2021/10/01 11:19:35;;;;;;;7.20;3.20;;;;;;;19.10;43.14;101226.41;5059682;28;20420;-69
2021/10/01 11:22:23;;;;;;;3.60;2.90;;;;;;;19.84;42.95;101217.06;5042312;28;20408;-69
2021/10/01 11:24:49;;;;;;;10.20;3.93;;;;;;;19.98;42.62;101225.56;5059486;28;20416;-68
2021/10/01 11:27:14;;;;;;;8.07;3.07;;;;;;;19.48;42.81;101209.84;5042089;28;20488;-70
2021/10/01 11:29:40;;;;;;;6.97;3.37;;;;;;;19.62;42.89;101198.97;5059401;28;20420;-68
2021/10/01 11:32:09;;;;;;;8.83;4.20;;;;;;;20.44;40.98;101199.81;5059992;28;20456;-68
2021/10/01 11:34:45;;;;;;;4.13;2.90;;;;;;;20.52;41.09;101211.09;5058105;28;20185;-69
2021/10/01 11:37:30;;;;;;;5.10;2.97;;;;;;;20.85;40.76;101203.25;5059350;28;20412;-68
2021/10/01 11:39:59;;;;;;;5.33;2.97;;;;;;;20.20;41.83;101193.31;5059098;28;20813;-68
2021/10/01 11:42:28;;;;;;;3.83;2.80;;;;;;;20.07;41.99;101198.03;5059362;28;20483;-68
2021/10/01 11:44:55;;;;;;;4.77;3.20;;;;;;;19.41;43.02;101208.19;5059210;28;20451;-68
2021/10/01 11:47:20;;;;;;;6.00;3.00;;;;;;;19.97;42.21;101204.44;5059251;28;20412;-68
2021/10/01 11:49:57;;;;;;;4.80;3.57;;;;;;;19.83;42.61;101202.94;5059434;28;20437;-68
2021/10/01 11:52:23;;;;;;;4.70;2.97;;;;;;;19.91;42.23;101199.28;5041643;28;20233;-68
2021/10/01 11:54:59;;;;;;;3.40;2.87;;;;;;;19.45;43.13;101196.66;5058869;28;20455;-68
2021/10/01 11:57:43;;;;;;;7.73;3.40;;;;;;;19.77;43.11;101197.78;5041705;28;21123;-68
2021/10/01 12:00:11;;;;;;;5.37;2.90;;;;;;;20.09;42.38;101201.50;5058768;28;20455;-69
2021/10/01 12:02:47;;;;;;;5.30;3.30;;;;;;;19.48;43.79;101196.63;5058681;28;20435;-69
2021/10/01 12:05:28;;;;;;;6.50;3.50;;;;;;;20.40;42.01;101184.91;5058819;28;20418;-67
2021/10/01 12:07:55;;;;;;;6.23;3.13;;;;;;;20.04;43.29;101190.19;5041425;28;20431;-68
2021/10/01 12:10:23;;;;;;;4.93;3.10;;;;;;;19.35;44.15;101195.97;5058628;28;20502;-69
2021/10/01 12:13:13;;;;;;;5.20;3.20;;;;;;;19.77;43.45;101192.50;5058571;28;20790;-68
2021/10/01 12:15:49;;;;;;;4.60;3.10;;;;;;;19.91;42.47;101178.97;5058642;28;20444;-69
2021/10/01 12:18:45;;;;;;;3.93;3.20;;;;;;;20.40;41.85;101173.44;5058556;28;20470;-68
2021/10/01 12:21:14;;;;;;;4.67;3.00;;;;;;;20.45;42.02;101188.31;5058347;28;20404;-69
2021/10/01 12:23:50;;;;;;;3.23;2.80;;;;;;;19.62;42.53;101187.50;5040993;28;20412;-70
2021/10/01 12:26:31;;;;;;;5.17;3.50;;;;;;;19.83;41.55;101191.50;5040891;28;20441;-68
2021/10/01 12:28:59;;;;;;;5.07;3.10;;;;;;;19.96;42.23;101171.81;5058269;28;20440;-69
2021/10/01 12:31:29;;;;;;;5.03;3.17;;;;;;;19.48;42.95;101179.88;5058074;28;20412;-68
2021/10/01 12:33:56;;;;;;;4.40;3.10;;;;;;;19.09;43.57;101150.66;5058167;28;20415;-68
2021/10/01 12:36:22;;;;;;;3.67;3.00;;;;;;;19.26;44.03;101153.84;5041102;28;20408;-69
2021/10/01 12:38:47;;;;;;;4.80;3.17;;;;;;;18.28;45.83;101169.63;5041568;28;20462;-69
2021/10/01 12:41:15;;;;;;;4.80;3.00;;;;;;;18.25;46.41;101151.22;5058141;28;20174;-69
2021/10/01 12:43:46;;;;;;;4.37;3.17;;;;;;;18.88;44.64;101157.22;5040920;28;20215;-68
2021/10/01 12:46:11;;;;;;;3.43;3.10;;;;;;;19.26;43.80;101147.72;5058243;28;20400;-69
2021/10/01 12:48:36;;;;;;;4.10;3.47;;;;;;;20.20;42.22;101132.44;5058102;28;20438;-69
2021/10/01 12:51:02;;;;;;;6.03;3.53;;;;;;;20.28;42.09;101126.97;5057743;28;20217;-69
2021/10/01 12:53:29;;;;;;;4.80;2.90;;;;;;;20.11;41.85;101136.19;5041221;28;20215;-69